sensor_id;sensor_type;location;lat;lon;timestamp;P1;durP1;ratioP1;P2;durP2;ratioP2
76863;SDS011;65834;52.364;9.754;2023-05-07T00:00:51;22.03;;;13.63;;
76863;SDS011;65834;52.364;9.754;2023-05-07T00:03:21;24.80;;;14.20;;
76863;SDS011;65834;52.364;9.754;2023-05-07T00:05:51;20.30;;;12.40;;
76863;SDS011;65834;52.364;9.754;2023-05-07T00:08:24;21.10;;;12.80;;
76863;SDS011;65834;52.364;9.754;2023-05-07T00:10:54;22.20;;;12.32;;
76863;SDS011;65834;52.364;9.754;2023-05-07T00:13:23;22.33;;;12.63;;
76863;SDS011;65834;52.364;9.754;2023-05-07T00:15:53;20.30;;;12.20;;
76863;SDS011;65834;52.364;9.754;2023-05-07T00:18:23;18.43;;;11.53;;
76863;SDS011;65834;52.364;9.754;2023-05-07T00:20:52;19.10;;;12.53;;
76863;SDS011;65834;52.364;9.754;2023-05-07T00:23:25;20.03;;;12.37;;
76863;SDS011;65834;52.364;9.754;2023-05-07T00:25:54;20.60;;;12.75;;
76863;SDS011;65834;52.364;9.754;2023-05-07T00:28:25;21.37;;;12.33;;
76863;SDS011;65834;52.364;9.754;2023-05-07T00:30:54;23.37;;;14.07;;
76863;SDS011;65834;52.364;9.754;2023-05-07T00:33:24;23.43;;;14.00;;
76863;SDS011;65834;52.364;9.754;2023-05-07T00:35:54;23.20;;;14.17;;
76863;SDS011;65834;52.364;9.754;2023-05-07T00:38:27;23.27;;;14.60;;
76863;SDS011;65834;52.364;9.754;2023-05-07T00:40:56;22.95;;;13.65;;
76863;SDS011;65834;52.364;9.754;2023-05-07T00:43:26;23.17;;;13.40;;
76863;SDS011;65834;52.364;9.754;2023-05-07T00:45:56;24.40;;;14.50;;
76863;SDS011;65834;52.364;9.754;2023-05-07T00:48:25;25.40;;;13.93;;
76863;SDS011;65834;52.364;9.754;2023-05-07T00:50:55;23.30;;;13.83;;
76863;SDS011;65834;52.364;9.754;2023-05-07T00:53:28;21.67;;;13.03;;
76863;SDS011;65834;52.364;9.754;2023-05-07T00:55:58;24.17;;;14.23;;
76863;SDS011;65834;52.364;9.754;2023-05-07T00:58:28;23.40;;;12.93;;
76863;SDS011;65834;52.364;9.754;2023-05-07T01:00:58;22.93;;;13.70;;
76863;SDS011;65834;52.364;9.754;2023-05-07T01:03:28;24.80;;;13.80;;
76863;SDS011;65834;52.364;9.754;2023-05-07T01:05:58;22.73;;;13.33;;
76863;SDS011;65834;52.364;9.754;2023-05-07T01:08:33;21.73;;;13.00;;
76863;SDS011;65834;52.364;9.754;2023-05-07T01:11:06;24.03;;;13.67;;
76863;SDS011;65834;52.364;9.754;2023-05-07T01:13:39;22.43;;;13.27;;
76863;SDS011;65834;52.364;9.754;2023-05-07T01:16:09;23.60;;;14.47;;
76863;SDS011;65834;52.364;9.754;2023-05-07T01:18:39;22.87;;;13.03;;
76863;SDS011;65834;52.364;9.754;2023-05-07T01:21:10;22.27;;;13.93;;
76863;SDS011;65834;52.364;9.754;2023-05-07T01:23:43;21.40;;;13.27;;
76863;SDS011;65834;52.364;9.754;2023-05-07T01:28:44;23.30;;;13.13;;
76863;SDS011;65834;52.364;9.754;2023-05-07T01:31:14;24.37;;;13.40;;
76863;SDS011;65834;52.364;9.754;2023-05-07T01:33:45;20.50;;;12.90;;
76863;SDS011;65834;52.364;9.754;2023-05-07T01:36:19;23.47;;;13.83;;
76863;SDS011;65834;52.364;9.754;2023-05-07T01:38:54;24.17;;;15.00;;
76863;SDS011;65834;52.364;9.754;2023-05-07T01:46:39;21.33;;;12.80;;
76863;SDS011;65834;52.364;9.754;2023-05-07T01:49:08;22.13;;;13.27;;
76863;SDS011;65834;52.364;9.754;2023-05-07T01:51:38;22.57;;;12.57;;
76863;SDS011;65834;52.364;9.754;2023-05-07T01:54:11;20.97;;;11.97;;
76863;SDS011;65834;52.364;9.754;2023-05-07T01:56:41;21.53;;;11.97;;
76863;SDS011;65834;52.364;9.754;2023-05-07T01:59:11;22.30;;;11.73;;
76863;SDS011;65834;52.364;9.754;2023-05-07T02:01:41;22.50;;;12.63;;
76863;SDS011;65834;52.364;9.754;2023-05-07T02:04:11;23.00;;;12.40;;
76863;SDS011;65834;52.364;9.754;2023-05-07T02:06:41;20.17;;;11.30;;
76863;SDS011;65834;52.364;9.754;2023-05-07T02:09:14;21.37;;;11.63;;
76863;SDS011;65834;52.364;9.754;2023-05-07T02:11:45;19.77;;;10.83;;
76863;SDS011;65834;52.364;9.754;2023-05-07T02:14:17;19.07;;;10.63;;
76863;SDS011;65834;52.364;9.754;2023-05-07T02:16:47;20.83;;;11.37;;
76863;SDS011;65834;52.364;9.754;2023-05-07T02:19:17;19.97;;;11.03;;
76863;SDS011;65834;52.364;9.754;2023-05-07T02:21:47;18.17;;;9.37;;
76863;SDS011;65834;52.364;9.754;2023-05-07T02:24:20;17.90;;;9.57;;
76863;SDS011;65834;52.364;9.754;2023-05-07T02:26:49;16.48;;;8.98;;
76863;SDS011;65834;52.364;9.754;2023-05-07T02:29:19;17.27;;;8.67;;
76863;SDS011;65834;52.364;9.754;2023-05-07T02:31:49;16.47;;;8.73;;
76863;SDS011;65834;52.364;9.754;2023-05-07T02:34:19;17.40;;;8.27;;
76863;SDS011;65834;52.364;9.754;2023-05-07T02:36:49;15.83;;;8.33;;
76863;SDS011;65834;52.364;9.754;2023-05-07T02:41:53;17.80;;;8.50;;
76863;SDS011;65834;52.364;9.754;2023-05-07T02:44:23;15.77;;;7.67;;
76863;SDS011;65834;52.364;9.754;2023-05-07T02:46:52;16.27;;;8.30;;
76863;SDS011;65834;52.364;9.754;2023-05-07T02:49:22;16.00;;;7.53;;
76863;SDS011;65834;52.364;9.754;2023-05-07T02:51:51;16.53;;;8.27;;
76863;SDS011;65834;52.364;9.754;2023-05-07T02:54:25;15.87;;;7.70;;
76863;SDS011;65834;52.364;9.754;2023-05-07T02:56:55;16.02;;;8.30;;
76863;SDS011;65834;52.364;9.754;2023-05-07T02:59:25;17.10;;;8.93;;
76863;SDS011;65834;52.364;9.754;2023-05-07T03:01:56;16.33;;;7.87;;
76863;SDS011;65834;52.364;9.754;2023-05-07T03:04:26;16.10;;;8.57;;
76863;SDS011;65834;52.364;9.754;2023-05-07T03:06:55;16.50;;;7.13;;
76863;SDS011;65834;52.364;9.754;2023-05-07T03:09:27;15.97;;;7.47;;
76863;SDS011;65834;52.364;9.754;2023-05-07T03:11:57;16.08;;;8.60;;
76863;SDS011;65834;52.364;9.754;2023-05-07T03:14:28;16.93;;;7.83;;
76863;SDS011;65834;52.364;9.754;2023-05-07T03:16:57;16.13;;;8.37;;
76863;SDS011;65834;52.364;9.754;2023-05-07T03:19:27;15.50;;;8.33;;
76863;SDS011;65834;52.364;9.754;2023-05-07T03:21:57;16.57;;;8.80;;
76863;SDS011;65834;52.364;9.754;2023-05-07T03:24:29;16.80;;;8.20;;
76863;SDS011;65834;52.364;9.754;2023-05-07T03:26:59;15.60;;;7.55;;
76863;SDS011;65834;52.364;9.754;2023-05-07T03:29:30;14.67;;;7.13;;
76863;SDS011;65834;52.364;9.754;2023-05-07T03:31:59;17.13;;;7.67;;
76863;SDS011;65834;52.364;9.754;2023-05-07T03:34:29;16.43;;;7.87;;
76863;SDS011;65834;52.364;9.754;2023-05-07T03:36:58;15.50;;;6.87;;
76863;SDS011;65834;52.364;9.754;2023-05-07T03:39:30;13.73;;;7.37;;
76863;SDS011;65834;52.364;9.754;2023-05-07T03:42:00;15.35;;;7.20;;
76863;SDS011;65834;52.364;9.754;2023-05-07T03:44:31;16.00;;;6.83;;
76863;SDS011;65834;52.364;9.754;2023-05-07T03:47:02;16.23;;;7.43;;
76863;SDS011;65834;52.364;9.754;2023-05-07T03:49:33;13.83;;;6.50;;
76863;SDS011;65834;52.364;9.754;2023-05-07T03:52:03;15.17;;;6.77;;
76863;SDS011;65834;52.364;9.754;2023-05-07T03:54:35;16.93;;;7.27;;
76863;SDS011;65834;52.364;9.754;2023-05-07T03:57:05;14.57;;;7.35;;
76863;SDS011;65834;52.364;9.754;2023-05-07T03:59:35;14.80;;;6.57;;
76863;SDS011;65834;52.364;9.754;2023-05-07T04:02:06;15.80;;;7.10;;
76863;SDS011;65834;52.364;9.754;2023-05-07T04:04:35;14.17;;;7.00;;
76863;SDS011;65834;52.364;9.754;2023-05-07T04:07:05;14.20;;;6.50;;
76863;SDS011;65834;52.364;9.754;2023-05-07T04:09:41;13.70;;;6.40;;
76863;SDS011;65834;52.364;9.754;2023-05-07T04:12:11;13.88;;;5.90;;
76863;SDS011;65834;52.364;9.754;2023-05-07T04:14:41;15.70;;;7.27;;
76863;SDS011;65834;52.364;9.754;2023-05-07T04:17:11;14.03;;;6.73;;
76863;SDS011;65834;52.364;9.754;2023-05-07T04:19:40;14.07;;;6.53;;
76863;SDS011;65834;52.364;9.754;2023-05-07T04:24:45;14.93;;;6.87;;
76863;SDS011;65834;52.364;9.754;2023-05-07T04:27:15;15.95;;;7.70;;
76863;SDS011;65834;52.364;9.754;2023-05-07T04:29:44;14.33;;;6.87;;
76863;SDS011;65834;52.364;9.754;2023-05-07T04:32:15;14.10;;;7.33;;
76863;SDS011;65834;52.364;9.754;2023-05-07T04:34:45;15.57;;;7.40;;
76863;SDS011;65834;52.364;9.754;2023-05-07T04:37:14;14.87;;;6.77;;
76863;SDS011;65834;52.364;9.754;2023-05-07T04:39:46;15.63;;;7.30;;
76863;SDS011;65834;52.364;9.754;2023-05-07T04:42:16;15.95;;;7.35;;
76863;SDS011;65834;52.364;9.754;2023-05-07T04:44:46;15.50;;;7.47;;
76863;SDS011;65834;52.364;9.754;2023-05-07T04:47:15;15.07;;;7.53;;
76863;SDS011;65834;52.364;9.754;2023-05-07T04:49:46;15.43;;;7.33;;
76863;SDS011;65834;52.364;9.754;2023-05-07T04:52:15;15.60;;;7.67;;
76863;SDS011;65834;52.364;9.754;2023-05-07T04:54:48;15.97;;;7.97;;
76863;SDS011;65834;52.364;9.754;2023-05-07T04:57:17;14.90;;;7.53;;
76863;SDS011;65834;52.364;9.754;2023-05-07T04:59:47;15.23;;;8.10;;
76863;SDS011;65834;52.364;9.754;2023-05-07T05:02:16;15.63;;;7.83;;
76863;SDS011;65834;52.364;9.754;2023-05-07T05:04:46;14.50;;;7.53;;
76863;SDS011;65834;52.364;9.754;2023-05-07T05:07:16;15.60;;;7.87;;
76863;SDS011;65834;52.364;9.754;2023-05-07T05:09:48;14.73;;;7.63;;
76863;SDS011;65834;52.364;9.754;2023-05-07T05:14:48;15.07;;;7.00;;
76863;SDS011;65834;52.364;9.754;2023-05-07T05:17:18;15.37;;;7.27;;
76863;SDS011;65834;52.364;9.754;2023-05-07T05:19:48;14.33;;;7.20;;
76863;SDS011;65834;52.364;9.754;2023-05-07T05:22:18;15.93;;;7.07;;
76863;SDS011;65834;52.364;9.754;2023-05-07T05:24:50;15.40;;;7.53;;
76863;SDS011;65834;52.364;9.754;2023-05-07T05:27:20;14.50;;;6.93;;
76863;SDS011;65834;52.364;9.754;2023-05-07T05:29:50;14.67;;;6.70;;
76863;SDS011;65834;52.364;9.754;2023-05-07T05:32:20;15.83;;;7.37;;
76863;SDS011;65834;52.364;9.754;2023-05-07T05:37:22;14.63;;;6.67;;
76863;SDS011;65834;52.364;9.754;2023-05-07T05:39:55;15.10;;;6.80;;
76863;SDS011;65834;52.364;9.754;2023-05-07T05:42:27;14.97;;;7.13;;
76863;SDS011;65834;52.364;9.754;2023-05-07T05:44:57;16.47;;;7.83;;
76863;SDS011;65834;52.364;9.754;2023-05-07T05:47:28;14.30;;;6.20;;
76863;SDS011;65834;52.364;9.754;2023-05-07T05:49:59;14.53;;;7.00;;
76863;SDS011;65834;52.364;9.754;2023-05-07T05:52:28;14.67;;;7.07;;
76863;SDS011;65834;52.364;9.754;2023-05-07T05:55:01;14.97;;;7.27;;
76863;SDS011;65834;52.364;9.754;2023-05-07T05:57:30;14.93;;;7.03;;
76863;SDS011;65834;52.364;9.754;2023-05-07T06:00:00;14.37;;;6.90;;
76863;SDS011;65834;52.364;9.754;2023-05-07T06:02:32;14.18;;;6.57;;
76863;SDS011;65834;52.364;9.754;2023-05-07T06:05:03;15.57;;;6.87;;
76863;SDS011;65834;52.364;9.754;2023-05-07T06:07:33;13.83;;;6.80;;
76863;SDS011;65834;52.364;9.754;2023-05-07T06:10:06;15.13;;;6.87;;
76863;SDS011;65834;52.364;9.754;2023-05-07T06:12:37;13.70;;;6.40;;
76863;SDS011;65834;52.364;9.754;2023-05-07T06:15:07;14.13;;;6.77;;
76863;SDS011;65834;52.364;9.754;2023-05-07T06:17:38;14.13;;;6.63;;
76863;SDS011;65834;52.364;9.754;2023-05-07T06:20:09;15.13;;;6.97;;
76863;SDS011;65834;52.364;9.754;2023-05-07T06:22:39;13.00;;;6.50;;
76863;SDS011;65834;52.364;9.754;2023-05-07T06:25:13;13.13;;;6.17;;
76863;SDS011;65834;52.364;9.754;2023-05-07T06:27:42;14.00;;;7.13;;
76863;SDS011;65834;52.364;9.754;2023-05-07T06:30:12;14.13;;;6.43;;
76863;SDS011;65834;52.364;9.754;2023-05-07T06:32:42;14.13;;;6.20;;
76863;SDS011;65834;52.364;9.754;2023-05-07T06:35:12;13.00;;;6.43;;
76863;SDS011;65834;52.364;9.754;2023-05-07T06:37:42;14.17;;;6.87;;
76863;SDS011;65834;52.364;9.754;2023-05-07T06:40:19;14.23;;;6.70;;
76863;SDS011;65834;52.364;9.754;2023-05-07T06:42:49;13.23;;;6.05;;
76863;SDS011;65834;52.364;9.754;2023-05-07T06:45:48;12.70;;;5.63;;
76863;SDS011;65834;52.364;9.754;2023-05-07T06:48:18;14.00;;;6.47;;
76863;SDS011;65834;52.364;9.754;2023-05-07T06:50:54;12.43;;;6.10;;
76863;SDS011;65834;52.364;9.754;2023-05-07T06:53:25;12.63;;;5.53;;
76863;SDS011;65834;52.364;9.754;2023-05-07T06:55:59;13.87;;;6.50;;
76863;SDS011;65834;52.364;9.754;2023-05-07T06:58:29;12.90;;;6.03;;
76863;SDS011;65834;52.364;9.754;2023-05-07T07:00:59;13.30;;;6.87;;
76863;SDS011;65834;52.364;9.754;2023-05-07T07:03:30;13.23;;;6.70;;
76863;SDS011;65834;52.364;9.754;2023-05-07T07:05:59;14.23;;;6.90;;
76863;SDS011;65834;52.364;9.754;2023-05-07T07:08:29;13.73;;;7.20;;
76863;SDS011;65834;52.364;9.754;2023-05-07T07:11:02;14.83;;;7.80;;
76863;SDS011;65834;52.364;9.754;2023-05-07T07:13:31;14.30;;;7.85;;
76863;SDS011;65834;52.364;9.754;2023-05-07T07:16:01;15.20;;;8.30;;
76863;SDS011;65834;52.364;9.754;2023-05-07T07:18:31;15.37;;;8.90;;
76863;SDS011;65834;52.364;9.754;2023-05-07T07:21:00;14.57;;;8.27;;
76863;SDS011;65834;52.364;9.754;2023-05-07T07:23:30;16.10;;;9.07;;
76863;SDS011;65834;52.364;9.754;2023-05-07T07:26:02;16.83;;;9.20;;
76863;SDS011;65834;52.364;9.754;2023-05-07T07:28:33;16.03;;;9.40;;
76863;SDS011;65834;52.364;9.754;2023-05-07T07:31:02;17.50;;;9.93;;
76863;SDS011;65834;52.364;9.754;2023-05-07T07:33:32;16.97;;;9.87;;
76863;SDS011;65834;52.364;9.754;2023-05-07T07:36:01;17.40;;;9.43;;
76863;SDS011;65834;52.364;9.754;2023-05-07T07:38:32;16.40;;;9.20;;
76863;SDS011;65834;52.364;9.754;2023-05-07T07:41:05;15.60;;;8.80;;
76863;SDS011;65834;52.364;9.754;2023-05-07T07:43:34;16.17;;;9.23;;
76863;SDS011;65834;52.364;9.754;2023-05-07T07:46:04;16.63;;;8.90;;
76863;SDS011;65834;52.364;9.754;2023-05-07T07:48:34;15.93;;;9.00;;
76863;SDS011;65834;52.364;9.754;2023-05-07T07:51:04;16.07;;;9.03;;
76863;SDS011;65834;52.364;9.754;2023-05-07T07:53:34;15.13;;;8.23;;
76863;SDS011;65834;52.364;9.754;2023-05-07T07:56:06;17.43;;;9.83;;
76863;SDS011;65834;52.364;9.754;2023-05-07T07:58:36;16.92;;;9.15;;
76863;SDS011;65834;52.364;9.754;2023-05-07T08:01:05;15.07;;;8.67;;
76863;SDS011;65834;52.364;9.754;2023-05-07T08:03:35;15.77;;;9.20;;
76863;SDS011;65834;52.364;9.754;2023-05-07T08:06:05;16.83;;;8.80;;
76863;SDS011;65834;52.364;9.754;2023-05-07T08:08:35;15.90;;;8.83;;
76863;SDS011;65834;52.364;9.754;2023-05-07T08:11:08;15.27;;;8.50;;
76863;SDS011;65834;52.364;9.754;2023-05-07T08:13:37;14.90;;;8.32;;
76863;SDS011;65834;52.364;9.754;2023-05-07T08:16:07;15.57;;;8.50;;
76863;SDS011;65834;52.364;9.754;2023-05-07T08:18:37;15.47;;;9.03;;
76863;SDS011;65834;52.364;9.754;2023-05-07T08:21:06;16.03;;;8.80;;
76863;SDS011;65834;52.364;9.754;2023-05-07T08:23:36;16.13;;;8.10;;
76863;SDS011;65834;52.364;9.754;2023-05-07T08:26:09;15.33;;;9.13;;
76863;SDS011;65834;52.364;9.754;2023-05-07T08:28:39;15.95;;;9.55;;
76863;SDS011;65834;52.364;9.754;2023-05-07T08:31:08;15.10;;;9.73;;
76863;SDS011;65834;52.364;9.754;2023-05-07T08:33:40;17.77;;;10.03;;
76863;SDS011;65834;52.364;9.754;2023-05-07T08:36:09;15.50;;;8.63;;
76863;SDS011;65834;52.364;9.754;2023-05-07T08:38:39;14.53;;;8.37;;
76863;SDS011;65834;52.364;9.754;2023-05-07T08:41:15;16.87;;;8.57;;
76863;SDS011;65834;52.364;9.754;2023-05-07T08:43:47;14.90;;;7.97;;
76863;SDS011;65834;52.364;9.754;2023-05-07T08:46:19;14.73;;;8.37;;
76863;SDS011;65834;52.364;9.754;2023-05-07T08:48:53;14.53;;;7.63;;
76863;SDS011;65834;52.364;9.754;2023-05-07T08:51:23;15.27;;;9.30;;
76863;SDS011;65834;52.364;9.754;2023-05-07T08:53:53;15.07;;;8.43;;
76863;SDS011;65834;52.364;9.754;2023-05-07T08:56:31;14.93;;;8.57;;
76863;SDS011;65834;52.364;9.754;2023-05-07T08:59:00;15.48;;;8.23;;
76863;SDS011;65834;52.364;9.754;2023-05-07T09:01:30;15.47;;;8.13;;
76863;SDS011;65834;52.364;9.754;2023-05-07T09:04:02;14.50;;;7.78;;
76863;SDS011;65834;52.364;9.754;2023-05-07T09:06:33;15.33;;;9.07;;
76863;SDS011;65834;52.364;9.754;2023-05-07T09:09:04;14.47;;;7.90;;
76863;SDS011;65834;52.364;9.754;2023-05-07T09:11:37;15.70;;;7.90;;
76863;SDS011;65834;52.364;9.754;2023-05-07T09:14:07;13.33;;;6.93;;
76863;SDS011;65834;52.364;9.754;2023-05-07T09:16:40;15.50;;;8.63;;
76863;SDS011;65834;52.364;9.754;2023-05-07T09:19:10;16.00;;;8.60;;
76863;SDS011;65834;52.364;9.754;2023-05-07T09:21:43;14.97;;;8.30;;
76863;SDS011;65834;52.364;9.754;2023-05-07T09:24:15;15.13;;;8.43;;
76863;SDS011;65834;52.364;9.754;2023-05-07T09:26:47;15.43;;;8.70;;
76863;SDS011;65834;52.364;9.754;2023-05-07T09:29:17;13.95;;;7.80;;
76863;SDS011;65834;52.364;9.754;2023-05-07T09:31:47;14.90;;;8.37;;
76863;SDS011;65834;52.364;9.754;2023-05-07T09:34:17;14.93;;;8.40;;
76863;SDS011;65834;52.364;9.754;2023-05-07T09:36:47;14.80;;;8.30;;
76863;SDS011;65834;52.364;9.754;2023-05-07T09:39:17;15.73;;;8.23;;
76863;SDS011;65834;52.364;9.754;2023-05-07T09:41:49;14.63;;;8.10;;
76863;SDS011;65834;52.364;9.754;2023-05-07T09:44:31;15.67;;;8.07;;
76863;SDS011;65834;52.364;9.754;2023-05-07T09:47:04;14.83;;;8.00;;
76863;SDS011;65834;52.364;9.754;2023-05-07T09:49:40;15.13;;;7.97;;
76863;SDS011;65834;52.364;9.754;2023-05-07T09:52:19;14.67;;;8.33;;
76863;SDS011;65834;52.364;9.754;2023-05-07T09:54:52;15.50;;;8.30;;
76863;SDS011;65834;52.364;9.754;2023-05-07T09:57:29;15.97;;;8.77;;
76863;SDS011;65834;52.364;9.754;2023-05-07T10:00:05;15.37;;;8.73;;
76863;SDS011;65834;52.364;9.754;2023-05-07T10:02:48;14.73;;;8.00;;
76863;SDS011;65834;52.364;9.754;2023-05-07T10:05:27;14.90;;;8.47;;
76863;SDS011;65834;52.364;9.754;2023-05-07T10:07:58;15.30;;;9.33;;
76863;SDS011;65834;52.364;9.754;2023-05-07T10:10:32;15.20;;;8.77;;
76863;SDS011;65834;52.364;9.754;2023-05-07T10:13:07;15.57;;;8.47;;
76863;SDS011;65834;52.364;9.754;2023-05-07T10:15:42;15.13;;;9.20;;
76863;SDS011;65834;52.364;9.754;2023-05-07T10:18:12;13.97;;;7.80;;
76863;SDS011;65834;52.364;9.754;2023-05-07T10:20:46;15.07;;;8.37;;
76863;SDS011;65834;52.364;9.754;2023-05-07T10:23:18;15.77;;;8.80;;
76863;SDS011;65834;52.364;9.754;2023-05-07T10:25:56;14.87;;;8.37;;
76863;SDS011;65834;52.364;9.754;2023-05-07T10:28:33;15.87;;;9.13;;
76863;SDS011;65834;52.364;9.754;2023-05-07T10:34:09;16.80;;;9.50;;
76863;SDS011;65834;52.364;9.754;2023-05-07T10:36:43;15.40;;;8.50;;
76863;SDS011;65834;52.364;9.754;2023-05-07T10:39:14;15.17;;;8.33;;
76863;SDS011;65834;52.364;9.754;2023-05-07T10:41:44;14.70;;;8.43;;
76863;SDS011;65834;52.364;9.754;2023-05-07T10:44:26;15.43;;;8.50;;
76863;SDS011;65834;52.364;9.754;2023-05-07T10:47:04;15.50;;;8.97;;
76863;SDS011;65834;52.364;9.754;2023-05-07T10:49:49;14.90;;;8.00;;
76863;SDS011;65834;52.364;9.754;2023-05-07T10:59:33;13.87;;;7.60;;
76863;SDS011;65834;52.364;9.754;2023-05-07T11:02:20;14.27;;;7.83;;
76863;SDS011;65834;52.364;9.754;2023-05-07T11:08:02;13.10;;;7.47;;
76863;SDS011;65834;52.364;9.754;2023-05-07T11:10:51;14.13;;;7.30;;
76863;SDS011;65834;52.364;9.754;2023-05-07T11:16:39;13.57;;;7.07;;
76863;SDS011;65834;52.364;9.754;2023-05-07T11:22:36;13.77;;;6.97;;
76863;SDS011;65834;52.364;9.754;2023-05-07T11:25:21;14.67;;;7.50;;
76863;SDS011;65834;52.364;9.754;2023-05-07T11:28:03;13.77;;;7.17;;
76863;SDS011;65834;52.364;9.754;2023-05-07T11:30:41;13.43;;;7.23;;
76863;SDS011;65834;52.364;9.754;2023-05-07T11:33:19;12.50;;;6.73;;
76863;SDS011;65834;52.364;9.754;2023-05-07T11:35:52;14.10;;;7.53;;
76863;SDS011;65834;52.364;9.754;2023-05-07T11:38:29;13.20;;;6.73;;
76863;SDS011;65834;52.364;9.754;2023-05-07T11:40:59;14.97;;;6.97;;
76863;SDS011;65834;52.364;9.754;2023-05-07T11:43:31;14.85;;;7.60;;
76863;SDS011;65834;52.364;9.754;2023-05-07T11:46:05;14.43;;;7.53;;
76863;SDS011;65834;52.364;9.754;2023-05-07T11:48:39;14.30;;;7.17;;
76863;SDS011;65834;52.364;9.754;2023-05-07T11:51:09;14.18;;;6.70;;
76863;SDS011;65834;52.364;9.754;2023-05-07T11:53:40;14.93;;;7.50;;
76863;SDS011;65834;52.364;9.754;2023-05-07T11:56:11;13.00;;;7.43;;
76863;SDS011;65834;52.364;9.754;2023-05-07T11:58:42;12.20;;;6.80;;
76863;SDS011;65834;52.364;9.754;2023-05-07T12:01:13;12.73;;;6.50;;
76863;SDS011;65834;52.364;9.754;2023-05-07T12:03:47;12.93;;;6.70;;
76863;SDS011;65834;52.364;9.754;2023-05-07T12:06:17;11.68;;;6.60;;
76863;SDS011;65834;52.364;9.754;2023-05-07T12:08:47;13.13;;;6.53;;
76863;SDS011;65834;52.364;9.754;2023-05-07T12:11:21;15.63;;;7.10;;
76863;SDS011;65834;52.364;9.754;2023-05-07T12:13:53;13.60;;;7.53;;
76863;SDS011;65834;52.364;9.754;2023-05-07T12:18:58;12.20;;;6.33;;
76863;SDS011;65834;52.364;9.754;2023-05-07T12:21:28;13.10;;;7.03;;
76863;SDS011;65834;52.364;9.754;2023-05-07T12:23:58;12.27;;;6.43;;
76863;SDS011;65834;52.364;9.754;2023-05-07T12:26:28;12.77;;;6.67;;
76863;SDS011;65834;52.364;9.754;2023-05-07T12:28:57;12.53;;;6.60;;
76863;SDS011;65834;52.364;9.754;2023-05-07T12:31:27;12.17;;;5.93;;
76863;SDS011;65834;52.364;9.754;2023-05-07T12:33:59;12.93;;;5.83;;
76863;SDS011;65834;52.364;9.754;2023-05-07T12:36:36;12.50;;;5.93;;
76863;SDS011;65834;52.364;9.754;2023-05-07T12:39:06;12.20;;;6.30;;
76863;SDS011;65834;52.364;9.754;2023-05-07T12:41:51;11.67;;;6.10;;
76863;SDS011;65834;52.364;9.754;2023-05-07T12:44:22;11.57;;;5.53;;
76863;SDS011;65834;52.364;9.754;2023-05-07T12:46:52;10.87;;;5.17;;
76863;SDS011;65834;52.364;9.754;2023-05-07T12:49:25;11.73;;;6.27;;
76863;SDS011;65834;52.364;9.754;2023-05-07T12:54:27;10.87;;;5.30;;
76863;SDS011;65834;52.364;9.754;2023-05-07T12:57:01;12.90;;;5.97;;
76863;SDS011;65834;52.364;9.754;2023-05-07T12:59:32;11.90;;;5.67;;
76863;SDS011;65834;52.364;9.754;2023-05-07T13:02:02;11.83;;;6.50;;
76863;SDS011;65834;52.364;9.754;2023-05-07T13:04:36;11.57;;;6.00;;
76863;SDS011;65834;52.364;9.754;2023-05-07T13:07:06;12.70;;;6.57;;
76863;SDS011;65834;52.364;9.754;2023-05-07T13:09:35;12.50;;;7.20;;
76863;SDS011;65834;52.364;9.754;2023-05-07T13:12:06;13.70;;;7.93;;
76863;SDS011;65834;52.364;9.754;2023-05-07T13:14:35;13.30;;;7.90;;
76863;SDS011;65834;52.364;9.754;2023-05-07T13:17:05;13.50;;;7.93;;
76863;SDS011;65834;52.364;9.754;2023-05-07T13:19:37;13.53;;;7.30;;
76863;SDS011;65834;52.364;9.754;2023-05-07T13:22:06;13.75;;;7.57;;
76863;SDS011;65834;52.364;9.754;2023-05-07T13:24:36;13.43;;;8.07;;
76863;SDS011;65834;52.364;9.754;2023-05-07T13:27:08;13.60;;;8.13;;
76863;SDS011;65834;52.364;9.754;2023-05-07T13:29:37;11.90;;;6.80;;
76863;SDS011;65834;52.364;9.754;2023-05-07T13:32:06;14.07;;;7.13;;
76863;SDS011;65834;52.364;9.754;2023-05-07T13:34:39;13.60;;;7.53;;
76863;SDS011;65834;52.364;9.754;2023-05-07T13:37:08;13.55;;;7.85;;
76863;SDS011;65834;52.364;9.754;2023-05-07T13:39:38;13.98;;;8.10;;
76863;SDS011;65834;52.364;9.754;2023-05-07T13:42:07;13.30;;;8.27;;
76863;SDS011;65834;52.364;9.754;2023-05-07T13:44:37;13.50;;;7.80;;
76863;SDS011;65834;52.364;9.754;2023-05-07T13:47:06;13.77;;;8.10;;
76863;SDS011;65834;52.364;9.754;2023-05-07T13:49:38;13.57;;;7.43;;
76863;SDS011;65834;52.364;9.754;2023-05-07T13:52:08;13.77;;;7.78;;
76863;SDS011;65834;52.364;9.754;2023-05-07T13:54:38;13.27;;;8.07;;
76863;SDS011;65834;52.364;9.754;2023-05-07T13:57:07;13.32;;;7.82;;
76863;SDS011;65834;52.364;9.754;2023-05-07T13:59:37;13.68;;;8.70;;
76863;SDS011;65834;52.364;9.754;2023-05-07T14:02:06;12.95;;;7.53;;
76863;SDS011;65834;52.364;9.754;2023-05-07T14:04:39;13.97;;;7.57;;
76863;SDS011;65834;52.364;9.754;2023-05-07T14:07:09;14.02;;;8.18;;
76863;SDS011;65834;52.364;9.754;2023-05-07T14:09:38;12.98;;;6.75;;
76863;SDS011;65834;52.364;9.754;2023-05-07T14:12:08;12.23;;;6.65;;
76863;SDS011;65834;52.364;9.754;2023-05-07T14:14:37;13.20;;;6.47;;
76863;SDS011;65834;52.364;9.754;2023-05-07T14:17:07;12.18;;;6.68;;
76863;SDS011;65834;52.364;9.754;2023-05-07T14:19:39;12.55;;;6.40;;
76863;SDS011;65834;52.364;9.754;2023-05-07T14:22:09;12.65;;;6.53;;
76863;SDS011;65834;52.364;9.754;2023-05-07T14:24:38;13.00;;;6.72;;
76863;SDS011;65834;52.364;9.754;2023-05-07T14:27:11;13.88;;;7.35;;
76863;SDS011;65834;52.364;9.754;2023-05-07T14:29:41;13.27;;;6.47;;
76863;SDS011;65834;52.364;9.754;2023-05-07T14:32:11;13.90;;;6.82;;
76863;SDS011;65834;52.364;9.754;2023-05-07T14:34:44;13.23;;;6.63;;
76863;SDS011;65834;52.364;9.754;2023-05-07T14:39:46;12.30;;;5.97;;
76863;SDS011;65834;52.364;9.754;2023-05-07T14:42:16;12.90;;;6.88;;
76863;SDS011;65834;52.364;9.754;2023-05-07T14:44:46;12.57;;;6.80;;
76863;SDS011;65834;52.364;9.754;2023-05-07T14:47:16;12.90;;;6.35;;
76863;SDS011;65834;52.364;9.754;2023-05-07T14:49:48;13.00;;;6.22;;
76863;SDS011;65834;52.364;9.754;2023-05-07T14:52:17;13.20;;;6.30;;
76863;SDS011;65834;52.364;9.754;2023-05-07T14:54:47;13.10;;;6.15;;
76863;SDS011;65834;52.364;9.754;2023-05-07T14:57:17;12.40;;;6.10;;
76863;SDS011;65834;52.364;9.754;2023-05-07T14:59:46;13.13;;;5.97;;
76863;SDS011;65834;52.364;9.754;2023-05-07T15:02:16;11.85;;;5.88;;
76863;SDS011;65834;52.364;9.754;2023-05-07T15:04:49;13.75;;;6.68;;
76863;SDS011;65834;52.364;9.754;2023-05-07T15:07:19;14.07;;;6.03;;
76863;SDS011;65834;52.364;9.754;2023-05-07T15:09:48;14.13;;;6.80;;
76863;SDS011;65834;52.364;9.754;2023-05-07T15:12:18;12.23;;;5.97;;
76863;SDS011;65834;52.364;9.754;2023-05-07T15:14:47;14.20;;;7.07;;
76863;SDS011;65834;52.364;9.754;2023-05-07T15:17:17;12.15;;;5.88;;
76863;SDS011;65834;52.364;9.754;2023-05-07T15:19:49;12.45;;;6.88;;
76863;SDS011;65834;52.364;9.754;2023-05-07T15:22:19;13.95;;;6.97;;
76863;SDS011;65834;52.364;9.754;2023-05-07T15:24:49;14.02;;;7.43;;
76863;SDS011;65834;52.364;9.754;2023-05-07T15:27:21;11.50;;;5.60;;
76863;SDS011;65834;52.364;9.754;2023-05-07T15:29:51;13.00;;;6.75;;
76863;SDS011;65834;52.364;9.754;2023-05-07T15:32:20;13.15;;;6.38;;
76863;SDS011;65834;52.364;9.754;2023-05-07T15:34:52;13.85;;;6.88;;
76863;SDS011;65834;52.364;9.754;2023-05-07T15:37:22;12.32;;;6.05;;
76863;SDS011;65834;52.364;9.754;2023-05-07T15:39:51;12.35;;;6.30;;
76863;SDS011;65834;52.364;9.754;2023-05-07T15:42:21;11.93;;;6.60;;